METAR Data
IDs: Format: Raw Decoded Include TAF

Data at: 1315 UTC 20 Oct 2021

PHNL 201253Z 00000KT 10SM FEW025 FEW040 23/17 A3004 RMK AO2 RAB29E38 SLP173 P0000 T02280172 $
PHNL 201153Z 00000KT 10SM FEW025 BKN045 23/17 A3005 RMK AO2 SLP176 VCSH NE T02280172 10244 20222 56007 $

PHNL 201120Z 2012/2118 33005KT P6SM FEW025 FEW040
  FM202000 04010G15KT P6SM FEW025 SCT045
  FM210500 04004KT P6SM FEW025 SCT045


PHOG 201254Z AUTO 00000KT 10SM CLR 19/15 A3003 RMK AO2 SLP173 T01940150 TSNO
PHOG 201154Z AUTO 05004KT 10SM CLR 21/16 A3003 RMK AO2 SLP175 T02110161 10239 20206 57014 TSNO

PHOG 201120Z 2012/2112 05005KT P6SM FEW050
  FM202000 03014G19KT P6SM FEW030 SCT060
  FM210600 03010KT P6SM FEW030 SCT060


PHKO 201253Z AUTO 03003KT 10SM CLR 23/17 A2999 RMK AO2 SLP155 T02280167 TSNO
PHKO 201153Z AUTO 00000KT 10SM CLR 23/16 A3000 RMK AO2 SLP157 T02330161 10261 20228 58014 TSNO

PHKO 201120Z 2012/2112 08005KT P6SM SCT025 SCT050
  FM202000 24009KT P6SM FEW050
  FM210200 22008KT P6SM FEW025 BKN050
  FM210700 08007KT P6SM VCSH SCT025 BKN045


PHTO 201253Z AUTO 24005KT 10SM FEW029 OVC050 19/14 A3002 RMK AO2 SLP165 T01940144 TSNO
PHTO 201153Z AUTO 23006KT 10SM FEW045 FEW050 19/15 A3003 RMK AO2 RAB01E10 SLP167 P0001 60001 70005 T01940150 10228 20194 58018 TSNO

PHTO 201120Z 2012/2112 23005KT P6SM FEW025 SCT045
  FM202000 04009KT P6SM FEW025 BKN050
  FM210400 VRB05KT P6SM FEW025 BKN045
  FM210700 24005KT P6SM SCT025 BKN045


PHLI 201253Z AUTO 30005KT 10SM FEW028 SCT034 BKN045 20/19 A3007 RMK AO2 SLP181 T02000189 TSNO $
PHLI 201153Z AUTO 29005KT 10SM FEW027 SCT037 SCT047 19/18 A3008 RMK AO2 SLP184 T01940183 10228 20194 58009 TSNO $

PHLI 201120Z 2012/2112 30005KT P6SM FEW028 FEW040
  FM202000 01010KT P6SM FEW025 SCT040
  FM210600 01010KT P6SM VCSH SCT025 BKN040